Time;durP1;ratioP1;P1;durP2;ratioP2;P2;SDS_P1;SDS_P2;PMS_P1;PMS_P2;Temp;Humidity;BMP_temperature;BMP_pressure;BME280_temperature;BME280_humidity;BME280_pressure;Samples;Min_cycle;Max_cycle;Signal;HPM_P1;HPM_P2
2022/01/06 00:01:46;;;;;;;;;46.25;39.75;11.50;69.30;;;;;;5045758;28;9381;-73
2022/01/06 00:04:12;;;;;;;;;36.25;34.25;11.40;69.50;;;;;;5050412;28;8829;-70
2022/01/06 00:06:41;;;;;;;;;41.25;37.50;11.30;70.20;;;;;;5054594;28;8775;-71
2022/01/06 00:09:09;;;;;;;;;38.25;35.00;11.60;69.20;;;;;;5054836;28;8826;-72
2022/01/06 00:11:35;;;;;;;;;33.50;32.00;11.50;68.80;;;;;;5054483;28;8759;-71
2022/01/06 00:14:12;;;;;;;;;47.00;41.00;11.60;69.10;;;;;;5054444;28;8848;-70
2022/01/06 00:16:57;;;;;;;;;51.25;42.50;11.60;67.90;;;;;;5052699;28;8770;-73
2022/01/06 00:24:52;;;;;;;;;44.25;35.50;11.60;67.40;;;;;;5054403;28;8743;-72
2022/01/06 00:27:18;;;;;;;;;34.50;33.00;11.50;67.40;;;;;;5053722;28;8840;-72
2022/01/06 00:29:43;;;;;;;;;35.25;32.75;11.70;65.90;;;;;;5052961;28;8782;-71
2022/01/06 00:32:10;;;;;;;;;24.75;24.75;11.60;65.60;;;;;;5053084;28;8859;-69
2022/01/06 00:34:36;;;;;;;;;17.67;17.33;11.40;65.80;;;;;;5052881;28;9520;-71
2022/01/06 00:37:03;;;;;;;;;28.00;25.00;11.30;66.40;;;;;;5053494;28;10686;-71
2022/01/06 00:39:29;;;;;;;;;24.00;23.00;10.90;68.00;;;;;;5053250;28;8845;-72
2022/01/06 00:41:58;;;;;;;;;24.00;23.75;11.00;68.10;;;;;;5052951;28;8896;-73
2022/01/06 00:44:24;;;;;;;;;31.25;25.50;10.80;68.50;;;;;;5050774;28;8868;-72
2022/01/06 00:46:51;;;;;;;;;35.00;29.25;11.10;68.10;;;;;;5052997;28;9514;-71
2022/01/06 00:49:20;;;;;;;;;30.00;26.50;11.20;67.00;;;;;;5052523;28;8858;-72
2022/01/06 00:51:48;;;;;;;;;26.75;25.00;11.20;66.90;;;;;;5053143;28;8760;-72
2022/01/06 00:54:14;;;;;;;;;22.75;22.75;11.10;67.80;;;;;;5053059;28;8767;-75
2022/01/06 00:56:40;;;;;;;;;21.00;18.50;11.20;67.10;;;;;;5053629;28;8755;-73
2022/01/06 00:59:06;;;;;;;;;20.00;17.33;11.10;68.00;;;;;;5054063;28;8869;-73
2022/01/06 01:01:32;;;;;;;;;16.00;16.00;10.70;69.90;;;;;;5054326;28;8902;-74
2022/01/06 01:03:58;;;;;;;;;24.33;22.33;10.30;72.80;;;;;;5053076;28;8763;-71
2022/01/06 01:06:24;;;;;;;;;17.25;16.00;9.90;75.20;;;;;;5045340;28;8843;-71
2022/01/06 01:08:50;;;;;;;;;16.67;16.67;10.00;75.80;;;;;;5033915;28;8833;-73
2022/01/06 01:11:16;;;;;;;;;19.33;18.00;10.00;75.80;;;;;;5034286;28;9524;-72
2022/01/06 01:13:55;;;;;;;;;16.33;16.33;9.70;78.00;;;;;;5033947;28;8817;-71
2022/01/06 01:16:30;;;;;;;;;17.67;17.00;9.70;78.20;;;;;;5035020;28;8773;-72
2022/01/06 01:18:57;;;;;;;;;21.00;18.50;9.30;81.50;;;;;;5037977;28;8773;-72
2022/01/06 01:21:28;;;;;;;;;21.00;19.00;9.30;82.40;;;;;;5037923;28;8809;-72
2022/01/06 01:23:58;;;;;;;;;17.00;16.67;9.20;82.00;;;;;;5037706;28;8780;-71
2022/01/06 01:26:26;;;;;;;;;21.75;17.75;8.80;85.10;;;;;;5037358;28;8765;-73
2022/01/06 01:28:52;;;;;;;;;27.00;23.75;8.90;83.80;;;;;;5037340;28;8838;-72
2022/01/06 01:33:49;;;;;;;;;17.00;16.00;8.80;83.80;;;;;;5037775;28;8770;-72
2022/01/06 01:36:15;;;;;;;;;15.75;15.50;9.10;81.90;;;;;;5037778;28;8782;-71
2022/01/06 01:38:43;;;;;;;;;22.75;20.75;9.30;80.40;;;;;;5037302;28;8806;-74
2022/01/06 01:41:09;;;;;;;;;18.50;17.25;9.40;78.80;;;;;;5037606;28;8773;-74
2022/01/06 01:43:36;;;;;;;;;15.33;13.00;9.20;79.60;;;;;;5037340;28;8768;-74
2022/01/06 01:46:10;;;;;;;;;17.00;17.00;9.20;80.60;;;;;;5037284;28;8868;-72
2022/01/06 01:48:39;;;;;;;;;19.00;17.33;9.10;80.40;;;;;;5037396;28;9451;-70
2022/01/06 01:51:08;;;;;;;;;21.75;20.25;9.20;79.10;;;;;;5037407;28;9609;-72
2022/01/06 01:53:35;;;;;;;;;24.50;21.25;9.00;81.60;;;;;;5037384;28;8757;-72
2022/01/06 01:56:03;;;;;;;;;23.25;21.00;8.90;82.40;;;;;;5036932;28;8774;-71
2022/01/06 01:58:29;;;;;;;;;19.67;19.67;9.00;82.50;;;;;;5036991;28;8777;-70
2022/01/06 02:00:55;;;;;;;;;16.67;16.67;8.80;83.50;;;;;;5037276;28;8861;-71
2022/01/06 02:03:21;;;;;;;;;21.33;17.00;8.80;81.50;;;;;;5037154;28;8855;-70
2022/01/06 02:05:47;;;;;;;;;22.00;21.00;9.10;80.20;;;;;;5037117;28;8766;-72
2022/01/06 02:08:12;;;;;;;;;19.75;19.75;8.80;80.70;;;;;;5037016;28;8923;-71
2022/01/06 02:10:38;;;;;;;;;18.33;18.33;9.00;79.10;;;;;;5036828;28;8778;-71
2022/01/06 02:13:04;;;;;;;;;13.67;13.00;8.90;78.50;;;;;;5036725;28;8778;-72
2022/01/06 02:15:30;;;;;;;;;19.33;17.67;9.00;76.00;;;;;;5036686;28;8781;-72
2022/01/06 02:17:56;;;;;;;;;13.33;13.33;8.80;76.90;;;;;;5036717;28;8762;-72
2022/01/06 02:20:23;;;;;;;;;11.67;11.33;9.00;73.60;;;;;;5036696;28;8931;-72
2022/01/06 02:22:50;;;;;;;;;13.00;13.00;8.90;74.40;;;;;;5036596;28;8831;-72
2022/01/06 02:25:22;;;;;;;;;11.33;11.33;8.60;74.40;;;;;;5036801;28;8792;-74
2022/01/06 02:27:53;;;;;;;;;11.67;8.67;8.30;75.20;;;;;;5035865;28;8821;-72
2022/01/06 02:30:22;;;;;;;;;15.33;15.33;8.20;76.70;;;;;;5036699;28;8769;-70
2022/01/06 02:32:48;;;;;;;;;14.00;11.00;8.70;73.90;;;;;;5036614;28;8871;-70
2022/01/06 02:35:18;;;;;;;;;16.33;15.00;8.50;73.50;;;;;;5036119;28;8777;-71
2022/01/06 02:37:44;;;;;;;;;14.00;14.00;8.40;74.50;;;;;;5036364;28;9463;-71
2022/01/06 02:40:16;;;;;;;;;15.67;14.00;8.60;73.80;;;;;;5036235;28;8762;-73
2022/01/06 02:42:44;;;;;;;;;13.00;12.67;8.60;73.80;;;;;;5036227;28;8773;-72
2022/01/06 02:45:11;;;;;;;;;12.33;12.00;8.70;73.90;;;;;;5036460;28;8851;-71
2022/01/06 02:47:37;;;;;;;;;13.33;13.33;8.90;72.20;;;;;;5035978;28;8828;-72
2022/01/06 02:50:04;;;;;;;;;13.67;12.33;9.10;71.10;;;;;;5036021;28;8789;-73
2022/01/06 02:52:30;;;;;;;;;17.33;17.33;9.00;71.10;;;;;;5041603;28;9556;-72
2022/01/06 02:54:56;;;;;;;;;18.75;17.25;9.00;70.90;;;;;;5041777;28;8888;-69
2022/01/06 02:57:22;;;;;;;;;9.00;8.67;8.90;71.50;;;;;;5035894;28;8765;-72
2022/01/06 02:59:48;;;;;;;;;10.75;10.25;9.10;69.60;;;;;;5035808;28;8766;-73
2022/01/06 03:02:14;;;;;;;;;11.25;11.25;9.20;69.00;;;;;;5036074;28;9517;-72
2022/01/06 03:04:40;;;;;;;;;11.25;11.25;9.30;68.10;;;;;;5035763;28;8782;-72
2022/01/06 03:07:07;;;;;;;;;12.50;12.50;9.40;66.50;;;;;;5035562;28;8824;-69
2022/01/06 03:09:39;;;;;;;;;13.50;13.00;9.40;66.30;;;;;;5035579;28;8833;-70
2022/01/06 03:12:10;;;;;;;;;17.00;17.00;9.40;65.40;;;;;;5035962;28;8852;-70
2022/01/06 03:14:37;;;;;;;;;11.67;11.67;9.30;64.80;;;;;;5035575;28;8795;-71
2022/01/06 03:17:04;;;;;;;;;13.33;13.33;8.80;66.80;;;;;;5035863;28;8811;-69
2022/01/06 03:19:29;;;;;;;;;20.75;18.50;9.00;66.30;;;;;;5035425;28;8912;-72
2022/01/06 03:21:55;;;;;;;;;17.00;16.50;9.10;66.90;;;;;;5035723;28;8777;-70
2022/01/06 03:24:21;;;;;;;;;14.50;13.00;9.20;66.20;;;;;;5035487;28;9500;-70
2022/01/06 03:26:47;;;;;;;;;20.50;15.50;9.30;66.40;;;;;;5035145;28;8785;-70
2022/01/06 03:29:13;;;;;;;;;23.75;22.00;9.20;66.70;;;;;;5035296;28;8845;-70
2022/01/06 03:31:39;;;;;;;;;18.00;17.75;9.30;66.60;;;;;;5035349;28;8738;-71
2022/01/06 03:34:04;;;;;;;;;15.33;13.67;9.60;65.50;;;;;;5035300;28;8900;-71
2022/01/06 03:36:30;;;;;;;;;14.00;12.33;9.10;66.70;;;;;;5035295;28;8774;-70
2022/01/06 03:38:56;;;;;;;;;10.00;8.00;8.70;67.90;;;;;;5034782;28;8817;-70
2022/01/06 03:41:22;;;;;;;;;17.50;17.50;8.60;69.30;;;;;;5035113;28;9456;-71
2022/01/06 03:43:47;;;;;;;;;14.00;13.00;8.20;70.90;;;;;;5035353;28;8777;-71
2022/01/06 03:46:13;;;;;;;;;10.50;10.50;8.10;71.80;;;;;;5035133;28;9469;-71
2022/01/06 03:48:39;;;;;;;;;12.50;9.25;7.90;71.30;;;;;;5035219;28;8813;-71
2022/01/06 03:51:05;;;;;;;;;16.75;12.75;7.90;71.50;;;;;;5035195;28;8770;-69
2022/01/06 03:53:30;;;;;;;;;7.00;7.00;8.10;69.90;;;;;;5035204;28;8774;-70
2022/01/06 03:55:56;;;;;;;;;15.00;14.00;7.90;69.50;;;;;;5034919;28;8792;-70
2022/01/06 03:58:22;;;;;;;;;9.75;9.75;8.00;69.20;;;;;;5034979;28;8872;-69
2022/01/06 04:00:48;;;;;;;;;12.50;12.50;8.10;67.80;;;;;;5034838;28;8785;-70
2022/01/06 04:03:13;;;;;;;;;11.75;11.75;8.00;67.90;;;;;;5035005;28;8781;-71
2022/01/06 04:05:39;;;;;;;;;16.00;14.50;8.30;65.80;;;;;;5034778;28;8777;-72
2022/01/06 04:08:05;;;;;;;;;12.67;11.33;8.40;64.40;;;;;;5034784;28;8922;-71
2022/01/06 04:10:31;;;;;;;;;12.67;12.67;8.00;65.50;;;;;;5034685;28;8796;-74
2022/01/06 04:12:57;;;;;;;;;12.00;12.00;8.20;65.20;;;;;;5034713;28;8816;-71
2022/01/06 04:15:24;;;;;;;;;11.00;10.33;8.10;64.80;;;;;;5034530;28;8802;-71
2022/01/06 04:17:49;;;;;;;;;11.33;10.00;8.50;64.40;;;;;;5034864;28;9443;-70
2022/01/06 04:20:15;;;;;;;;;15.00;14.25;8.40;64.30;;;;;;5034505;28;8789;-71
2022/01/06 04:22:42;;;;;;;;;13.50;13.00;8.40;64.80;;;;;;5034786;28;8766;-71
2022/01/06 04:25:08;;;;;;;;;10.33;10.33;7.90;65.80;;;;;;5034540;28;8762;-70
2022/01/06 04:27:35;;;;;;;;;12.75;12.00;7.60;67.80;;;;;;5034197;28;8903;-71
2022/01/06 04:30:02;;;;;;;;;13.75;11.25;7.20;68.90;;;;;;5034688;28;8891;-71
2022/01/06 04:32:27;;;;;;;;;16.00;12.00;6.90;70.50;;;;;;5034431;28;8773;-73
2022/01/06 04:34:54;;;;;;;;;15.25;12.50;6.80;72.60;;;;;;5034616;28;8785;-71
2022/01/06 04:37:20;;;;;;;;;9.00;9.00;6.60;75.20;;;;;;5034392;28;8813;-70
2022/01/06 04:39:46;;;;;;;;;17.50;16.00;6.60;75.60;;;;;;5034514;28;8805;-71
2022/01/06 04:42:11;;;;;;;;;13.75;13.50;6.60;76.40;;;;;;5034602;28;8769;-71
2022/01/06 04:44:37;;;;;;;;;18.25;15.00;6.80;76.30;;;;;;5034276;28;8793;-72
2022/01/06 04:47:03;;;;;;;;;17.50;15.00;7.20;75.00;;;;;;5034525;28;8793;-70
2022/01/06 04:49:29;;;;;;;;;18.75;17.50;7.50;73.30;;;;;;5034169;28;8816;-72
2022/01/06 04:51:55;;;;;;;;;14.50;13.25;7.50;73.00;;;;;;5037922;28;8817;-71
2022/01/06 04:54:21;;;;;;;;;14.25;13.25;7.50;72.80;;;;;;5038484;28;8903;-72
2022/01/06 04:56:47;;;;;;;;;17.75;16.50;7.80;72.20;;;;;;5038191;28;9363;-72
2022/01/06 04:59:13;;;;;;;;;17.75;17.75;8.00;71.80;;;;;;5038300;28;8785;-70
2022/01/06 05:01:38;;;;;;;;;18.75;16.50;7.70;73.30;;;;;;5038015;28;8789;-71
2022/01/06 05:04:05;;;;;;;;;14.50;13.25;7.80;73.90;;;;;;5037982;28;8762;-72
2022/01/06 05:06:31;;;;;;;;;21.25;18.75;7.50;75.80;;;;;;5038214;28;8761;-72
2022/01/06 05:08:57;;;;;;;;;15.25;13.75;7.70;75.10;;;;;;5038246;28;8940;-71
2022/01/06 05:11:23;;;;;;;;;13.00;13.00;7.90;74.10;;;;;;5038165;28;8782;-73
2022/01/06 05:13:50;;;;;;;;;14.00;13.75;7.80;75.10;;;;;;5037497;28;8785;-72
2022/01/06 05:16:16;;;;;;;;;15.50;14.00;7.60;75.30;;;;;;5037570;28;8777;-72
2022/01/06 05:18:42;;;;;;;;;13.00;13.00;7.60;74.40;;;;;;5037735;28;8789;-71
2022/01/06 05:21:08;;;;;;;;;11.50;11.50;7.60;74.20;;;;;;5037821;28;8770;-72
2022/01/06 05:23:35;;;;;;;;;13.50;12.25;7.60;72.70;;;;;;5037556;28;8846;-72
2022/01/06 05:26:01;;;;;;;;;12.25;11.25;7.40;74.20;;;;;;5037685;28;8808;-72
2022/01/06 05:28:26;;;;;;;;;13.25;13.25;7.40;73.40;;;;;;5037381;28;8833;-73
2022/01/06 05:30:52;;;;;;;;;11.50;11.50;7.50;73.40;;;;;;5037623;28;9183;-73
2022/01/06 05:33:19;;;;;;;;;12.50;8.50;7.00;76.60;;;;;;5037543;28;8766;-73
2022/01/06 05:35:45;;;;;;;;;12.50;12.00;7.00;76.80;;;;;;5037493;28;8782;-71
2022/01/06 05:38:11;;;;;;;;;16.50;13.50;6.80;77.40;;;;;;5037626;28;8802;-71
2022/01/06 05:40:37;;;;;;;;;16.00;14.25;6.80;78.50;;;;;;5037578;28;8773;-72
2022/01/06 05:43:03;;;;;;;;;14.50;13.50;6.80;77.50;;;;;;5037326;28;9428;-73
2022/01/06 05:45:29;;;;;;;;;18.50;16.00;6.90;76.40;;;;;;5036265;28;8765;-71
2022/01/06 05:47:55;;;;;;;;;17.25;15.50;6.90;77.50;;;;;;5037442;28;8832;-72
2022/01/06 05:50:21;;;;;;;;;25.00;22.00;7.20;75.50;;;;;;5037188;28;9396;-71
2022/01/06 05:52:47;;;;;;;;;24.75;24.00;7.40;73.60;;;;;;5036225;28;8761;-70
2022/01/06 05:55:13;;;;;;;;;25.00;25.00;7.50;71.60;;;;;;5037037;28;8789;-70
2022/01/06 05:57:39;;;;;;;;;28.00;25.00;7.30;72.90;;;;;;5037301;28;8781;-71
2022/01/06 06:00:07;;;;;;;;;23.00;23.00;7.20;72.90;;;;;;5037021;28;8829;-71
2022/01/06 06:02:33;;;;;;;;;29.00;27.50;7.50;71.50;;;;;;5036294;28;8778;-70
2022/01/06 06:04:59;;;;;;;;;25.50;25.50;7.80;70.10;;;;;;5037230;28;8939;-70
2022/01/06 06:07:25;;;;;;;;;36.00;32.25;8.00;67.90;;;;;;5036953;28;8801;-73
2022/01/06 06:09:51;;;;;;;;;25.75;24.00;8.00;67.90;;;;;;5037077;28;8781;-71
2022/01/06 06:12:17;;;;;;;;;17.00;17.00;8.00;66.90;;;;;;5037088;28;8774;-72
2022/01/06 06:14:43;;;;;;;;;16.00;15.75;8.00;65.60;;;;;;5036606;28;8802;-72
2022/01/06 06:17:09;;;;;;;;;19.25;17.00;7.70;66.20;;;;;;5036896;28;8781;-72
2022/01/06 06:19:35;;;;;;;;;20.25;17.50;7.40;67.70;;;;;;5036811;28;8777;-74
2022/01/06 06:22:01;;;;;;;;;13.50;13.50;7.50;68.40;;;;;;5036544;28;8870;-71
2022/01/06 06:24:27;;;;;;;;;15.25;15.00;7.50;68.20;;;;;;5036489;28;8785;-72
2022/01/06 06:26:53;;;;;;;;;18.25;17.75;7.80;67.40;;;;;;5036519;28;8813;-73
2022/01/06 06:29:20;;;;;;;;;43.00;38.25;7.80;66.80;;;;;;5036790;28;8797;-72
2022/01/06 06:31:46;;;;;;;;;47.50;41.00;7.70;67.40;;;;;;5036468;28;8848;-72
2022/01/06 06:34:12;;;;;;;;;46.50;41.00;7.20;70.20;;;;;;5036574;28;8781;-71
2022/01/06 06:36:38;;;;;;;;;53.00;43.50;7.30;70.80;;;;;;5036377;28;8768;-71
2022/01/06 06:39:05;;;;;;;;;76.50;61.75;7.40;70.70;;;;;;5036691;28;8795;-72
2022/01/06 06:41:31;;;;;;;;;67.00;53.00;7.40;70.80;;;;;;5036491;28;8776;-72
2022/01/06 06:43:57;;;;;;;;;49.50;41.25;7.20;72.00;;;;;;5036432;28;8773;-69
2022/01/06 06:46:23;;;;;;;;;41.50;38.25;7.30;71.70;;;;;;5036106;28;8817;-72
2022/01/06 06:48:48;;;;;;;;;40.25;38.00;7.00;72.90;;;;;;5036257;28;8809;-71
2022/01/06 06:51:15;;;;;;;;;54.75;43.25;7.00;74.00;;;;;;5035038;28;8786;-71
2022/01/06 06:53:42;;;;;;;;;48.25;41.25;7.20;73.00;;;;;;5036226;28;8789;-72
2022/01/06 06:56:08;;;;;;;;;54.00;46.00;7.20;73.00;;;;;;5034879;28;8794;-72
2022/01/06 06:58:34;;;;;;;;;49.00;43.00;7.20;72.50;;;;;;5036140;28;8769;-71
2022/01/06 07:00:59;;;;;;;;;41.25;37.00;7.00;73.50;;;;;;5035835;28;9490;-73
2022/01/06 07:03:25;;;;;;;;;41.75;38.00;6.90;75.80;;;;;;5036058;28;8750;-70
2022/01/06 07:05:51;;;;;;;;;48.25;42.75;7.10;73.90;;;;;;5036001;28;9477;-73
2022/01/06 07:08:17;;;;;;;;;48.00;39.25;7.10;74.20;;;;;;5035458;28;8829;-72
2022/01/06 07:10:43;;;;;;;;;57.50;44.00;7.20;73.80;;;;;;5035608;28;8801;-73
2022/01/06 07:13:10;;;;;;;;;52.50;45.00;7.20;73.80;;;;;;5035832;28;8769;-74
2022/01/06 07:15:41;;;;;;;;;55.00;46.00;7.10;75.20;;;;;;5035752;28;8792;-72
2022/01/06 07:18:07;;;;;;;;;40.25;38.25;7.30;74.50;;;;;;5035594;28;8754;-71
2022/01/06 07:20:33;;;;;;;;;47.00;40.00;7.10;75.00;;;;;;5035656;28;9431;-71
2022/01/06 07:22:59;;;;;;;;;43.25;38.50;7.00;75.60;;;;;;5035339;28;8901;-70
2022/01/06 07:25:25;;;;;;;;;42.50;38.25;7.20;74.80;;;;;;5035331;28;8889;-69
2022/01/06 07:27:50;;;;;;;;;43.00;40.75;7.40;73.20;;;;;;5035178;28;8935;-68
2022/01/06 07:30:16;;;;;;;;;54.50;45.00;7.20;74.90;;;;;;5035131;28;9416;-68
2022/01/06 07:32:44;;;;;;;;;49.25;44.50;7.20;75.40;;;;;;5035109;28;8794;-68
2022/01/06 07:35:10;;;;;;;;;52.25;44.50;7.50;73.80;;;;;;5035010;28;8781;-68
2022/01/06 07:37:36;;;;;;;;;56.50;47.50;7.70;73.00;;;;;;5035082;28;8809;-68
2022/01/06 07:40:02;;;;;;;;;57.50;47.00;7.50;74.10;;;;;;5035080;28;8777;-70
2022/01/06 07:42:28;;;;;;;;;60.50;49.25;7.50;74.00;;;;;;5034965;28;8796;-71
2022/01/06 07:44:55;;;;;;;;;60.75;49.75;7.50;75.20;;;;;;5035259;28;8770;-71
2022/01/06 07:47:21;;;;;;;;;54.25;45.00;7.30;75.00;;;;;;5035068;28;8769;-70
2022/01/06 07:49:47;;;;;;;;;58.75;44.25;7.20;76.00;;;;;;5034810;28;8808;-69
2022/01/06 07:52:13;;;;;;;;;49.50;44.00;7.30;76.60;;;;;;5034928;28;8867;-68
2022/01/06 07:54:38;;;;;;;;;53.25;42.75;7.50;77.80;;;;;;5034776;28;8789;-69
2022/01/06 07:57:04;;;;;;;;;57.00;45.75;7.50;77.30;;;;;;5034711;28;8910;-68
2022/01/06 07:59:30;;;;;;;;;41.00;37.50;7.70;73.80;;;;;;5034790;28;8770;-67
2022/01/06 08:01:56;;;;;;;;;42.25;37.00;7.50;73.50;;;;;;5034901;28;8861;-68
2022/01/06 08:04:22;;;;;;;;;29.25;29.25;7.20;76.00;;;;;;5034579;28;8773;-67
2022/01/06 08:06:47;;;;;;;;;42.75;38.00;7.20;75.30;;;;;;5034803;28;9581;-68
2022/01/06 08:09:13;;;;;;;;;37.25;36.00;6.90;78.10;;;;;;5042911;28;8831;-64
2022/01/06 08:11:40;;;;;;;;;35.50;34.50;7.00;78.00;;;;;;5053124;28;8805;-66
2022/01/06 08:14:06;;;;;;;;;37.25;35.00;6.90;77.50;;;;;;5053120;28;8763;-65
2022/01/06 08:16:32;;;;;;;;;39.75;35.75;6.30;83.40;;;;;;5053324;28;8787;-65
2022/01/06 08:18:58;;;;;;;;;42.00;38.25;6.40;83.00;;;;;;5053043;28;8940;-66
2022/01/06 08:21:24;;;;;;;;;45.00;41.75;6.80;80.70;;;;;;5053086;28;8844;-65
2022/01/06 08:23:50;;;;;;;;;39.50;38.25;6.90;79.20;;;;;;5053197;28;8776;-66
2022/01/06 08:26:16;;;;;;;;;41.75;40.00;7.00;78.80;;;;;;5052711;28;9504;-66
2022/01/06 08:28:46;;;;;;;;;43.00;38.75;7.10;77.90;;;;;;5052725;28;8829;-66
2022/01/06 08:31:13;;;;;;;;;38.75;37.75;6.80;78.80;;;;;;5052858;28;8763;-66
2022/01/06 08:33:39;;;;;;;;;51.75;42.50;6.80;79.00;;;;;;5053023;28;8782;-66
2022/01/06 08:36:06;;;;;;;;;50.50;42.75;6.80;79.40;;;;;;5054273;28;9370;-66
2022/01/06 08:38:31;;;;;;;;;52.75;45.00;6.80;79.60;;;;;;5054649;28;8814;-66
2022/01/06 08:40:57;;;;;;;;;48.50;41.50;6.80;78.80;;;;;;5053936;28;8841;-67
2022/01/06 08:43:27;;;;;;;;;42.00;34.00;6.60;82.10;;;;;;5054337;28;9508;-67
2022/01/06 08:45:57;;;;;;;;;37.75;35.75;6.60;80.00;;;;;;5054055;28;8799;-66
2022/01/06 08:48:26;;;;;;;;;36.00;32.00;6.90;78.30;;;;;;5054258;28;9488;-67
2022/01/06 08:50:53;;;;;;;;;35.00;34.00;7.00;75.90;;;;;;5054116;28;8837;-67
2022/01/06 08:53:20;;;;;;;;;27.75;27.75;6.80;76.90;;;;;;5054330;28;9640;-64
2022/01/06 08:55:46;;;;;;;;;35.00;29.75;6.60;77.80;;;;;;5053905;28;8759;-64
2022/01/06 08:58:13;;;;;;;;;31.00;30.75;6.20;80.90;;;;;;5053885;28;8859;-64
2022/01/06 09:00:39;;;;;;;;;34.50;28.00;6.20;81.30;;;;;;5054021;28;8755;-64
2022/01/06 09:03:06;;;;;;;;;34.50;29.50;6.40;81.10;;;;;;5053909;28;8767;-66
2022/01/06 09:05:33;;;;;;;;;25.25;23.50;6.20;82.20;;;;;;5054129;28;8771;-67
2022/01/06 09:07:59;;;;;;;;;33.75;26.50;6.10;81.70;;;;;;5054147;28;8835;-67
2022/01/06 09:10:29;;;;;;;;;40.00;33.50;6.30;82.00;;;;;;5053849;28;8881;-65
2022/01/06 09:12:55;;;;;;;;;33.00;31.25;6.20;81.70;;;;;;5053788;28;8763;-66
2022/01/06 09:15:21;;;;;;;;;39.75;38.00;6.30;81.40;;;;;;5053946;28;9412;-66
2022/01/06 09:17:47;;;;;;;;;32.00;30.00;6.50;80.80;;;;;;5053381;28;8771;-63
2022/01/06 09:20:13;;;;;;;;;30.25;28.25;6.80;78.60;;;;;;5052259;28;8912;-64
2022/01/06 09:22:44;;;;;;;;;30.50;30.25;6.40;79.10;;;;;;5052155;28;8764;-65
2022/01/06 09:25:12;;;;;;;;;30.75;27.00;6.10;80.90;;;;;;5052551;28;9401;-65
2022/01/06 09:27:39;;;;;;;;;27.75;23.25;6.30;82.20;;;;;;5052071;28;8857;-64
2022/01/06 09:30:06;;;;;;;;;31.00;29.75;6.50;79.80;;;;;;5052466;28;8854;-64
2022/01/06 09:32:32;;;;;;;;;36.25;36.25;6.60;79.00;;;;;;5052334;28;8779;-65
2022/01/06 09:34:59;;;;;;;;;27.00;26.25;6.50;79.90;;;;;;5052528;28;8771;-65
2022/01/06 09:37:25;;;;;;;;;30.25;28.50;6.40;80.10;;;;;;5053317;28;8821;-68
2022/01/06 09:39:51;;;;;;;;;25.75;25.75;6.20;82.70;;;;;;5055946;28;8840;-65
2022/01/06 09:42:18;;;;;;;;;28.00;27.50;6.20;81.60;;;;;;5055730;28;8791;-65
2022/01/06 09:44:46;;;;;;;;;30.75;28.00;6.10;81.50;;;;;;5056301;28;8774;-65
2022/01/06 09:47:12;;;;;;;;;34.00;31.50;5.70;86.10;;;;;;5055345;28;8882;-63
2022/01/06 09:49:40;;;;;;;;;35.50;32.75;5.80;85.00;;;;;;5055562;28;8795;-65
2022/01/06 09:52:07;;;;;;;;;40.75;36.25;6.10;83.20;;;;;;5053220;28;8784;-65
2022/01/06 09:54:38;;;;;;;;;32.00;28.50;6.20;83.10;;;;;;5055322;28;8810;-64
2022/01/06 09:57:04;;;;;;;;;29.50;28.00;6.40;78.60;;;;;;5055245;28;8787;-66
2022/01/06 09:59:31;;;;;;;;;27.75;24.25;6.30;79.60;;;;;;5055328;28;8783;-66
2022/01/06 10:01:58;;;;;;;;;31.50;29.75;6.30;81.00;;;;;;5049837;28;8767;-67
2022/01/06 10:04:30;;;;;;;;;38.25;35.00;6.10;81.00;;;;;;5051883;28;8779;-63
2022/01/06 10:07:07;;;;;;;;;29.25;26.25;6.40;82.00;;;;;;5055731;28;8791;-65
2022/01/06 10:09:35;;;;;;;;;34.25;31.00;6.40;79.30;;;;;;5052049;28;8835;-67
2022/01/06 10:12:10;;;;;;;;;25.00;20.25;5.90;81.80;;;;;;5051895;28;8795;-68
2022/01/06 10:14:42;;;;;;;;;32.75;31.00;5.70;83.10;;;;;;5041820;28;8801;-68
2022/01/06 10:17:08;;;;;;;;;30.75;28.75;6.00;81.30;;;;;;5053055;28;8783;-67
2022/01/06 10:19:40;;;;;;;;;37.25;33.00;6.10;81.10;;;;;;5053522;28;8779;-63
2022/01/06 10:22:16;;;;;;;;;29.25;26.50;6.20;80.90;;;;;;5055333;28;8817;-68
2022/01/06 10:24:44;;;;;;;;;33.75;31.75;6.10;82.10;;;;;;5055182;28;8755;-66
2022/01/06 10:27:11;;;;;;;;;35.75;35.25;6.20;80.40;;;;;;5055773;28;8783;-68
2022/01/06 10:29:42;;;;;;;;;30.75;30.75;6.20;81.40;;;;;;5055421;28;8833;-68
2022/01/06 10:32:13;;;;;;;;;29.75;28.50;6.10;81.20;;;;;;5054640;28;8771;-68
2022/01/06 10:34:48;;;;;;;;;33.75;31.25;6.20;81.40;;;;;;5055527;28;8771;-68
2022/01/06 10:37:24;;;;;;;;;31.25;29.25;6.10;83.60;;;;;;5054948;28;8802;-68
2022/01/06 10:39:52;;;;;;;;;27.25;27.00;5.70;85.00;;;;;;5055189;28;8766;-67
2022/01/06 10:42:26;;;;;;;;;27.00;27.00;5.80;83.70;;;;;;5043289;28;8797;-69
2022/01/06 10:44:58;;;;;;;;;29.25;27.25;5.70;86.70;;;;;;5051562;28;8763;-67
2022/01/06 10:47:29;;;;;;;;;33.75;32.75;5.60;85.80;;;;;;5052481;28;8767;-67
2022/01/06 10:50:10;;;;;;;;;36.25;35.00;5.40;89.80;;;;;;5055027;28;9543;-67
2022/01/06 10:52:39;;;;;;;;;27.50;27.50;5.60;90.10;;;;;;5053463;28;9591;-67
2022/01/06 10:55:15;;;;;;;;;42.25;37.00;5.80;88.50;;;;;;5055321;28;8814;-69
2022/01/06 10:58:11;;;;;;;;;42.75;40.25;5.70;89.80;;;;;;5055760;28;8782;-66
2022/01/06 11:00:45;;;;;;;;;27.75;25.00;5.80;89.20;;;;;;5055846;28;8779;-71
2022/01/06 11:03:25;;;;;;;;;36.25;31.50;5.40;91.00;;;;;;5055279;28;8783;-70
2022/01/06 11:05:54;;;;;;;;;40.00;38.50;5.60;91.70;;;;;;5054488;28;8759;-67
2022/01/06 11:08:27;;;;;;;;;45.75;40.50;5.80;89.80;;;;;;5051989;28;8817;-70
2022/01/06 11:11:14;;;;;;;;;40.00;39.00;6.00;89.00;;;;;;5054179;28;8791;-71
2022/01/06 11:13:42;;;;;;;;;41.50;37.50;5.60;90.20;;;;;;5042520;28;8809;-67
2022/01/06 11:16:12;;;;;;;;;42.00;38.75;5.80;90.60;;;;;;5035557;28;8789;-66
2022/01/06 11:18:41;;;;;;;;;38.50;35.25;6.00;88.30;;;;;;5040916;28;8814;-67
2022/01/06 11:21:15;;;;;;;;;43.25;38.75;5.80;89.70;;;;;;5041175;28;9451;-66
2022/01/06 11:23:41;;;;;;;;;42.50;40.00;5.60;90.40;;;;;;5044315;28;8770;-67
2022/01/06 11:26:22;;;;;;;;;42.25;38.75;5.70;90.80;;;;;;5044922;28;8771;-68
2022/01/06 11:29:00;;;;;;;;;37.25;37.25;5.40;92.30;;;;;;5044499;28;8882;-67
2022/01/06 11:31:41;;;;;;;;;49.50;41.50;5.60;91.90;;;;;;5045159;28;8834;-66
2022/01/06 11:34:18;;;;;;;;;43.75;40.25;5.60;91.60;;;;;;5041026;28;9440;-66
2022/01/06 11:36:47;;;;;;;;;46.50;40.75;5.70;91.00;;;;;;5048971;28;9443;-66
2022/01/06 11:39:43;;;;;;;;;35.25;35.25;5.30;93.10;;;;;;5043850;28;8853;-69
2022/01/06 11:42:18;;;;;;;;;45.50;40.25;5.50;91.90;;;;;;4977974;28;8821;-67
2022/01/06 11:44:55;;;;;;;;;43.00;40.00;5.50;91.20;;;;;;4980817;28;8839;-67
2022/01/06 11:47:37;;;;;;;;;66.25;54.00;5.90;90.30;;;;;;4979854;28;8777;-68
2022/01/06 11:50:21;;;;;;;;;45.50;41.50;6.30;86.20;;;;;;4991042;28;8918;-67
2022/01/06 11:53:05;;;;;;;;;53.25;45.25;6.00;89.30;;;;;;4977071;28;9498;-67
2022/01/06 11:55:42;;;;;;;;;49.25;44.25;6.00;89.40;;;;;;4993511;28;8789;-67
2022/01/06 11:58:14;;;;;;;;;53.00;44.50;6.00;88.30;;;;;;4983581;28;8816;-68
2022/01/06 12:00:42;;;;;;;;;53.75;43.00;5.70;91.30;;;;;;4973790;28;8802;-68
2022/01/06 12:03:13;;;;;;;;;52.00;44.00;5.70;91.60;;;;;;4992952;28;8810;-67
2022/01/06 12:05:43;;;;;;;;;57.25;46.25;6.00;90.20;;;;;;4993125;28;8787;-66
2022/01/06 12:08:08;;;;;;;;;52.50;44.75;6.00;90.40;;;;;;4993029;28;8817;-66
2022/01/06 12:10:42;;;;;;;;;62.25;53.00;6.10;89.30;;;;;;4993019;28;8779;-67
2022/01/06 12:13:08;;;;;;;;;60.00;51.00;6.30;88.20;;;;;;4992517;28;8813;-68
2022/01/06 12:15:55;;;;;;;;;84.50;66.75;6.20;88.80;;;;;;4992947;28;8774;-66
2022/01/06 12:18:26;;;;;;;;;79.25;61.00;6.50;86.00;;;;;;5010790;28;8813;-66
2022/01/06 12:20:54;;;;;;;;;75.25;61.00;6.50;86.10;;;;;;5033573;28;8769;-66
2022/01/06 12:23:21;;;;;;;;;79.00;63.00;6.30;86.80;;;;;;5034549;28;8753;-66
2022/01/06 12:26:01;;;;;;;;;70.50;56.25;6.30;89.60;;;;;;5034344;28;8781;-67
2022/01/06 12:28:28;;;;;;;;;68.00;56.25;6.40;88.00;;;;;;5034127;28;8798;-67
2022/01/06 12:31:01;;;;;;;;;68.75;56.50;6.50;87.20;;;;;;5034217;28;8781;-68
2022/01/06 12:33:31;;;;;;;;;67.25;55.75;6.60;83.50;;;;;;5034254;28;8937;-69
2022/01/06 12:35:57;;;;;;;;;71.50;57.00;7.10;82.90;;;;;;5033954;28;8832;-68
2022/01/06 12:38:36;;;;;;;;;67.00;55.25;7.30;78.60;;;;;;5038163;28;9596;-69
2022/01/06 12:41:02;;;;;;;;;67.75;54.50;7.10;79.60;;;;;;5053429;28;8771;-67
2022/01/06 12:43:32;;;;;;;;;58.25;49.25;7.30;77.90;;;;;;5050405;28;8777;-68
2022/01/06 12:46:01;;;;;;;;;63.50;53.00;7.10;79.30;;;;;;5033081;28;8797;-70
2022/01/06 12:48:38;;;;;;;;;62.25;50.00;6.90;81.10;;;;;;5034323;28;8754;-70
2022/01/06 12:51:04;;;;;;;;;63.75;51.25;6.90;81.30;;;;;;5033217;28;8944;-66
2022/01/06 12:53:36;;;;;;;;;61.75;51.50;7.00;79.70;;;;;;5033957;28;8802;-65
2022/01/06 12:56:02;;;;;;;;;62.75;52.00;7.00;79.00;;;;;;5033885;28;8893;-65
2022/01/06 12:58:39;;;;;;;;;64.50;55.25;7.20;77.80;;;;;;5033796;28;8880;-66